createdAt,value
2022-11-27T00:00:08.249Z,28.25
2022-11-27T00:02:56.703Z,20.13
2022-11-27T00:05:53.193Z,25.80
2022-11-27T00:08:41.554Z,19.75
2022-11-27T00:11:32.935Z,25.10
2022-11-27T00:14:21.203Z,21.17
2022-11-27T00:17:09.541Z,23.88
2022-11-27T00:19:57.871Z,20.65
2022-11-27T00:22:46.170Z,20.58
2022-11-27T00:25:34.632Z,21.27
2022-11-27T00:28:24.295Z,22.65
2022-11-27T00:31:16.594Z,21.92
2022-11-27T00:34:07.971Z,20.70
2022-11-27T00:36:56.273Z,21.98
2022-11-27T00:39:44.641Z,25.33
2022-11-27T00:42:32.963Z,29.70
2022-11-27T00:45:22.700Z,24.33
2022-11-27T00:48:11.051Z,34.40
2022-11-27T00:51:01.830Z,33.15
2022-11-27T00:53:50.679Z,25.35
2022-11-27T00:56:40.582Z,26.63
2022-11-27T00:59:28.893Z,24.85
2022-11-27T01:02:18.623Z,29.95
2022-11-27T01:05:07.997Z,22.65
2022-11-27T01:07:56.445Z,25.67
2022-11-27T01:10:54.596Z,27.42
2022-11-27T01:13:43.753Z,25.42
2022-11-27T01:16:33.789Z,26.40
2022-11-27T01:19:23.720Z,31.63
2022-11-27T01:22:12.030Z,26.65
2022-11-27T01:25:00.380Z,22.38
2022-11-27T01:27:48.717Z,21.67
2022-11-27T01:30:38.857Z,20.33
2022-11-27T01:33:27.152Z,20.08
2022-11-27T01:36:17.383Z,24.20
2022-11-27T01:39:06.188Z,24.30
2022-11-27T01:41:54.490Z,24.83
2022-11-27T01:44:56.023Z,27.95
2022-11-27T01:47:47.857Z,30.95
2022-11-27T01:50:39.687Z,22.48
2022-11-27T01:53:29.638Z,28.27
2022-11-27T01:56:18.726Z,33.58
2022-11-27T01:59:07.893Z,25.95
2022-11-27T02:01:56.404Z,27.88
2022-11-27T02:04:44.799Z,27.13
2022-11-27T02:07:33.309Z,27.02
2022-11-27T02:10:24.135Z,26.48
2022-11-27T02:13:15.350Z,25.33
2022-11-27T02:16:17.761Z,35.25
2022-11-27T02:19:18.316Z,31.95
2022-11-27T02:22:16.299Z,25.85
2022-11-27T02:25:11.692Z,27.55
2022-11-27T02:28:20.925Z,29.67
2022-11-27T02:31:17.191Z,24.33
2022-11-27T02:34:15.483Z,27.25
2022-11-27T02:37:10.452Z,25.65
2022-11-27T02:40:03.939Z,27.40
2022-11-27T02:42:57.176Z,27.45
2022-11-27T02:45:49.597Z,33.15
2022-11-27T02:48:47.839Z,31.02
2022-11-27T02:51:39.136Z,30.35
2022-11-27T02:57:18.597Z,27.52
2022-11-27T03:00:08.814Z,30.75
2022-11-27T03:03:01.613Z,33.78
2022-11-27T03:05:55.993Z,26.45
2022-11-27T03:08:51.224Z,32.05
2022-11-27T03:11:39.774Z,32.17
2022-11-27T03:14:28.187Z,30.92
2022-11-27T03:17:27.917Z,35.00
2022-11-27T03:20:20.532Z,30.73
2022-11-27T03:23:10.198Z,30.92
2022-11-27T03:25:58.566Z,26.98
2022-11-27T03:28:48.206Z,33.65
2022-11-27T03:31:37.346Z,34.35
2022-11-27T03:34:25.719Z,30.63
2022-11-27T03:37:14.138Z,30.60
2022-11-27T03:40:04.690Z,39.08
2022-11-27T03:43:04.629Z,23.08
2022-11-27T03:45:59.973Z,25.67
2022-11-27T03:48:54.880Z,29.52
2022-11-27T03:51:50.062Z,33.15
2022-11-27T03:54:51.022Z,29.90
2022-11-27T03:57:48.093Z,29.60
2022-11-27T04:00:40.708Z,26.80
2022-11-27T04:03:31.148Z,35.78
2022-11-27T04:06:19.532Z,38.85
2022-11-27T04:09:07.937Z,37.03
2022-11-27T04:11:56.278Z,33.47
2022-11-27T04:14:45.943Z,41.55
2022-11-27T04:17:34.588Z,35.28
2022-11-27T04:20:22.924Z,38.42
2022-11-27T04:23:11.462Z,37.85
2022-11-27T04:25:59.794Z,34.65
2022-11-27T04:28:48.095Z,35.78
2022-11-27T04:31:37.861Z,38.03
2022-11-27T04:34:26.216Z,38.53
2022-11-27T04:37:14.792Z,36.80
2022-11-27T04:40:03.633Z,34.50
2022-11-27T04:42:52.113Z,39.15
2022-11-27T04:45:41.264Z,35.45
2022-11-27T04:48:30.953Z,36.58
2022-11-27T04:51:19.292Z,40.95
2022-11-27T04:54:07.624Z,39.85
2022-11-27T04:56:55.965Z,33.33
2022-11-27T04:59:44.294Z,40.80
2022-11-27T05:02:32.751Z,35.42
2022-11-27T05:05:22.481Z,40.25
2022-11-27T05:08:10.798Z,44.30
2022-11-27T05:11:03.314Z,44.08
2022-11-27T05:14:12.137Z,45.30
2022-11-27T05:17:01.051Z,35.75
2022-11-27T05:19:49.651Z,41.38
2022-11-27T05:22:39.328Z,36.05
2022-11-27T05:25:27.689Z,36.63
2022-11-27T05:28:15.988Z,37.33
2022-11-27T05:31:04.429Z,35.28
2022-11-27T05:33:53.005Z,34.85
2022-11-27T05:36:41.592Z,35.05
2022-11-27T05:39:31.269Z,36.90
2022-11-27T05:42:19.538Z,44.28
2022-11-27T05:45:09.057Z,35.72
2022-11-27T05:47:57.403Z,35.42
2022-11-27T05:50:45.726Z,37.08
2022-11-27T05:53:34.732Z,38.70
2022-11-27T05:56:24.446Z,33.17
2022-11-27T05:59:12.838Z,39.63
2022-11-27T06:02:01.215Z,37.15
2022-11-27T06:04:49.528Z,48.05
2022-11-27T06:07:37.869Z,39.03
2022-11-27T06:10:26.272Z,40.03
2022-11-27T06:13:16.273Z,34.30
2022-11-27T06:16:09.238Z,41.63
2022-11-27T06:18:57.647Z,29.92
2022-11-27T06:21:46.661Z,31.67
2022-11-27T06:24:35.037Z,40.28
2022-11-27T06:27:23.525Z,36.78
2022-11-27T06:30:14.328Z,36.47
2022-11-27T06:33:02.753Z,38.38
2022-11-27T06:35:51.027Z,38.65
2022-11-27T06:38:40.014Z,39.53
2022-11-27T06:41:29.394Z,30.70
2022-11-27T06:44:17.711Z,36.90
2022-11-27T06:47:12.083Z,38.42
2022-11-27T06:50:00.386Z,37.17
2022-11-27T06:52:48.728Z,44.13
2022-11-27T06:55:39.309Z,39.20
2022-11-27T06:58:31.066Z,25.17
2022-11-27T07:01:20.231Z,39.92
2022-11-27T07:04:11.034Z,29.35
2022-11-27T07:06:59.844Z,36.95
2022-11-27T07:09:48.301Z,33.42
2022-11-27T07:12:36.601Z,39.78
2022-11-27T07:15:24.994Z,41.53
2022-11-27T07:18:13.384Z,40.38
2022-11-27T07:21:03.105Z,38.35
2022-11-27T07:23:51.874Z,37.50
2022-11-27T07:26:40.471Z,38.10
2022-11-27T07:29:28.819Z,40.50
2022-11-27T07:32:17.242Z,35.25
2022-11-27T07:35:06.007Z,34.10
2022-11-27T07:37:55.700Z,34.40
2022-11-27T07:40:44.007Z,35.42
2022-11-27T07:43:33.953Z,37.80
2022-11-27T07:46:25.408Z,39.78
2022-11-27T07:49:13.742Z,42.80
2022-11-27T07:52:02.025Z,35.20
2022-11-27T07:54:51.681Z,38.08
2022-11-27T07:57:40.005Z,40.28
2022-11-27T08:00:28.281Z,34.92
2022-11-27T08:03:17.346Z,37.88
2022-11-27T08:06:06.058Z,31.00
2022-11-27T08:08:56.606Z,32.65
2022-11-27T08:11:46.609Z,44.22
2022-11-27T08:14:34.961Z,46.75
2022-11-27T08:17:23.784Z,34.47
2022-11-27T08:20:12.453Z,36.50
2022-11-27T08:23:02.934Z,37.22
2022-11-27T08:25:51.658Z,42.58
2022-11-27T08:28:42.391Z,41.03
2022-11-27T08:31:30.840Z,29.65
2022-11-27T08:34:19.204Z,41.33
2022-11-27T08:37:08.330Z,43.38
2022-11-27T08:39:56.614Z,34.17
2022-11-27T08:42:44.935Z,35.92
2022-11-27T08:45:34.700Z,36.38
2022-11-27T08:48:23.766Z,40.70
2022-11-27T08:51:14.596Z,38.10
2022-11-27T08:54:03.044Z,36.63
2022-11-27T08:56:52.848Z,34.45
2022-11-27T08:59:41.254Z,40.85
2022-11-27T09:02:30.937Z,35.95
2022-11-27T09:05:19.435Z,34.90
2022-11-27T09:08:07.753Z,39.03
2022-11-27T09:11:00.163Z,36.60
2022-11-27T09:13:48.883Z,35.55
2022-11-27T09:16:37.435Z,30.52
2022-11-27T09:19:27.346Z,39.13
2022-11-27T09:22:15.674Z,37.40
2022-11-27T09:25:04.613Z,30.65
2022-11-27T09:27:52.913Z,30.17
2022-11-27T09:30:41.330Z,33.75
2022-11-27T09:33:31.804Z,32.90
2022-11-27T09:36:24.120Z,33.78
2022-11-27T09:39:13.809Z,30.27
2022-11-27T09:42:04.269Z,29.48
2022-11-27T09:44:58.698Z,35.28
2022-11-27T09:47:53.967Z,34.17
2022-11-27T09:50:50.268Z,31.20
2022-11-27T09:53:48.557Z,30.40
2022-11-27T09:56:37.557Z,33.65
2022-11-27T09:59:32.166Z,31.70
2022-11-27T10:02:27.503Z,26.02
2022-11-27T10:05:20.182Z,23.95
2022-11-27T10:08:23.352Z,32.67
2022-11-27T10:11:26.603Z,28.55
2022-11-27T10:14:34.338Z,28.42
2022-11-27T10:17:29.492Z,26.15
2022-11-27T10:20:28.774Z,26.42
2022-11-27T10:23:27.169Z,25.92
2022-11-27T10:26:20.428Z,28.67
2022-11-27T10:29:20.988Z,28.50
2022-11-27T10:32:46.797Z,24.40
2022-11-27T10:35:26.962Z,26.33
2022-11-27T10:38:20.453Z,27.42
2022-11-27T10:41:34.336Z,23.23
2022-11-27T10:44:29.916Z,24.67
2022-11-27T10:47:19.570Z,26.50
2022-11-27T10:50:14.503Z,31.13
2022-11-27T10:53:07.194Z,26.90
2022-11-27T10:56:21.002Z,23.67
2022-11-27T10:59:14.608Z,26.92
2022-11-27T11:02:05.773Z,28.58
2022-11-27T11:05:16.175Z,25.45
2022-11-27T11:08:05.876Z,32.60
2022-11-27T11:10:55.909Z,25.42
2022-11-27T11:13:47.075Z,23.88
2022-11-27T11:19:35.603Z,19.73
2022-11-27T11:22:24.897Z,21.42
2022-11-27T11:25:17.980Z,24.10
2022-11-27T11:28:06.430Z,20.98
2022-11-27T11:30:58.474Z,25.10
2022-11-27T11:33:54.122Z,21.40
2022-11-27T11:36:56.257Z,26.13
2022-11-27T11:39:49.165Z,25.42
2022-11-27T11:42:38.455Z,22.13
2022-11-27T11:45:32.259Z,18.10
2022-11-27T11:48:24.877Z,27.60
2022-11-27T11:51:18.703Z,19.48
2022-11-27T11:54:21.704Z,17.50
2022-11-27T11:57:43.280Z,19.77
2022-11-27T12:00:58.416Z,16.50
2022-11-27T12:04:07.464Z,18.63
2022-11-27T12:07:08.025Z,20.52
2022-11-27T12:10:05.033Z,18.33
2022-11-27T12:13:04.820Z,19.23
2022-11-27T12:16:04.631Z,22.33
2022-11-27T12:19:15.032Z,21.15
2022-11-27T12:22:17.234Z,27.13
2022-11-27T12:25:22.185Z,24.23
2022-11-27T12:28:29.925Z,21.55
2022-11-27T12:31:27.121Z,17.73
2022-11-27T12:34:25.789Z,22.60
2022-11-27T12:37:29.264Z,17.90
2022-11-27T12:40:34.765Z,21.48
2022-11-27T12:43:26.503Z,22.67
2022-11-27T12:46:20.080Z,16.50
2022-11-27T12:49:15.911Z,24.33
2022-11-27T12:52:12.634Z,22.00
2022-11-27T12:55:06.660Z,19.17
2022-11-27T12:58:01.184Z,18.05
2022-11-27T13:00:50.858Z,20.83
2022-11-27T13:03:47.495Z,18.65
2022-11-27T13:06:46.992Z,23.52
2022-11-27T13:09:43.593Z,20.33
2022-11-27T13:12:38.755Z,20.98
2022-11-27T13:15:33.979Z,20.80
2022-11-27T13:18:31.108Z,17.38
2022-11-27T13:21:23.677Z,16.13
2022-11-27T13:24:14.052Z,21.42
2022-11-27T13:27:07.537Z,18.25
2022-11-27T13:29:58.831Z,15.25
2022-11-27T13:32:52.085Z,17.70
2022-11-27T13:35:42.682Z,19.73
2022-11-27T13:38:32.739Z,19.98
2022-11-27T13:41:22.774Z,18.33
2022-11-27T13:44:25.156Z,15.23
2022-11-27T13:47:16.482Z,17.23
2022-11-27T13:50:09.564Z,24.05
2022-11-27T13:53:00.656Z,22.30
2022-11-27T13:58:43.864Z,20.17
2022-11-27T14:01:32.210Z,19.85
2022-11-27T14:04:20.600Z,16.13
2022-11-27T14:07:12.028Z,21.58
2022-11-27T14:10:09.956Z,22.83
2022-11-27T14:13:01.941Z,21.95
2022-11-27T14:16:01.888Z,23.80
2022-11-27T14:18:52.761Z,22.75
2022-11-27T14:21:44.156Z,23.80
2022-11-27T14:24:41.298Z,21.88
2022-11-27T14:27:35.970Z,21.90
2022-11-27T14:30:34.890Z,20.77
2022-11-27T14:33:25.469Z,19.55
2022-11-27T14:36:24.484Z,23.85
2022-11-27T14:39:23.280Z,19.35
2022-11-27T14:42:26.278Z,18.27
2022-11-27T14:45:18.949Z,21.10
2022-11-27T14:48:07.824Z,18.48
2022-11-27T14:50:57.853Z,20.38
2022-11-27T14:53:48.188Z,22.15
2022-11-27T14:56:40.455Z,23.65
2022-11-27T14:59:30.223Z,19.25
2022-11-27T15:02:24.635Z,22.10
2022-11-27T15:05:22.145Z,22.45
2022-11-27T15:08:11.392Z,23.50
2022-11-27T15:11:01.956Z,20.13
2022-11-27T15:13:54.981Z,20.13
2022-11-27T15:16:48.853Z,19.52
2022-11-27T15:19:38.976Z,17.25
2022-11-27T15:22:27.740Z,20.80
2022-11-27T15:25:30.701Z,19.42
2022-11-27T15:28:35.626Z,20.42
2022-11-27T15:31:26.887Z,17.48
2022-11-27T15:34:24.571Z,16.35
2022-11-27T15:37:24.083Z,18.15
2022-11-27T15:40:36.008Z,21.40
2022-11-27T15:43:24.334Z,21.48
2022-11-27T15:46:13.939Z,19.73
2022-11-27T15:49:02.393Z,24.92
2022-11-27T15:51:52.723Z,22.55
2022-11-27T15:54:41.312Z,19.42
2022-11-27T15:57:29.846Z,15.20
2022-11-27T16:00:19.334Z,17.50
2022-11-27T16:03:07.628Z,20.35
2022-11-27T16:05:56.076Z,21.17
2022-11-27T16:08:45.764Z,19.48
2022-11-27T16:11:34.227Z,21.48
2022-11-27T16:14:22.633Z,24.15
2022-11-27T16:17:11.818Z,20.13
2022-11-27T16:20:00.159Z,22.38
2022-11-27T16:22:48.459Z,32.00
2022-11-27T16:25:40.383Z,29.00
2022-11-27T16:28:30.302Z,23.27
2022-11-27T16:31:18.712Z,21.83
2022-11-27T16:34:07.214Z,20.38
2022-11-27T16:36:55.600Z,20.90
2022-11-27T16:39:43.885Z,23.27
2022-11-27T16:42:33.578Z,23.30
2022-11-27T16:45:21.945Z,28.02
2022-11-27T16:48:10.485Z,23.20
2022-11-27T16:51:03.390Z,19.77
2022-11-27T16:53:54.041Z,22.52
2022-11-27T16:56:42.670Z,18.98
2022-11-27T16:59:32.485Z,20.52
2022-11-27T17:02:20.917Z,21.75
2022-11-27T17:05:09.835Z,18.65
2022-11-27T17:07:58.261Z,22.05
2022-11-27T17:10:46.716Z,17.77
2022-11-27T17:13:35.005Z,18.25
2022-11-27T17:16:25.219Z,23.08
2022-11-27T17:19:14.515Z,18.07
2022-11-27T17:22:02.862Z,16.83
2022-11-27T17:24:51.823Z,18.67
2022-11-27T17:27:40.109Z,18.73
2022-11-27T17:30:28.476Z,17.25
2022-11-27T17:33:18.142Z,18.80
2022-11-27T17:36:07.705Z,20.38
2022-11-27T17:38:56.255Z,17.73
2022-11-27T17:41:45.566Z,19.55
2022-11-27T17:44:34.670Z,17.70
2022-11-27T17:47:23.166Z,18.60
2022-11-27T17:50:13.653Z,14.93
2022-11-27T17:53:02.018Z,20.50
2022-11-27T17:55:50.338Z,19.20
2022-11-27T17:58:39.428Z,18.42
2022-11-27T18:01:29.301Z,17.27
2022-11-27T18:04:17.809Z,20.40
2022-11-27T18:07:07.623Z,20.55
2022-11-27T18:09:57.192Z,24.05
2022-11-27T18:12:45.592Z,19.15
2022-11-27T18:15:35.214Z,21.08
2022-11-27T18:18:23.523Z,17.63
2022-11-27T18:21:18.025Z,20.08
2022-11-27T18:24:25.290Z,18.92
2022-11-27T18:27:15.270Z,21.92
2022-11-27T18:30:04.528Z,22.73
2022-11-27T18:32:52.999Z,20.70
2022-11-27T18:35:42.514Z,20.52
2022-11-27T18:38:31.801Z,21.50
2022-11-27T18:41:23.928Z,22.42
2022-11-27T18:44:12.281Z,20.17
2022-11-27T18:47:00.641Z,17.30
2022-11-27T18:49:49.247Z,20.85
2022-11-27T18:52:38.752Z,20.02
2022-11-27T18:55:27.195Z,22.83
2022-11-27T18:58:16.873Z,21.52
2022-11-27T19:01:08.127Z,22.92
2022-11-27T19:03:57.703Z,22.30
2022-11-27T19:06:46.545Z,23.35
2022-11-27T19:09:35.268Z,19.25
2022-11-27T19:12:23.589Z,23.95
2022-11-27T19:15:13.547Z,22.50
2022-11-27T19:18:01.891Z,21.30
2022-11-27T19:20:50.304Z,28.38
2022-11-27T19:23:39.442Z,18.80
2022-11-27T19:26:30.697Z,21.27
2022-11-27T19:32:08.709Z,23.90
2022-11-27T19:34:57.143Z,20.25
2022-11-27T19:37:45.469Z,23.35
2022-11-27T19:40:38.613Z,20.08
2022-11-27T19:43:27.085Z,24.83
2022-11-27T19:46:16.568Z,19.05
2022-11-27T19:49:08.406Z,20.60
2022-11-27T19:51:56.762Z,22.75
2022-11-27T19:54:45.463Z,23.75
2022-11-27T19:57:33.957Z,22.02
2022-11-27T20:00:22.912Z,19.40
2022-11-27T20:03:11.268Z,17.75
2022-11-27T20:06:04.974Z,19.10
2022-11-27T20:08:59.530Z,19.48
2022-11-27T20:11:47.879Z,19.48
2022-11-27T20:14:36.205Z,17.95
2022-11-27T20:17:24.791Z,16.65
2022-11-27T20:20:13.845Z,17.90
2022-11-27T20:23:03.522Z,18.05
2022-11-27T20:25:51.896Z,18.63
2022-11-27T20:28:41.273Z,18.90
2022-11-27T20:31:32.125Z,16.67
2022-11-27T20:34:22.896Z,16.98
2022-11-27T20:37:11.284Z,16.80
2022-11-27T20:40:00.972Z,18.20
2022-11-27T20:42:49.283Z,14.45
2022-11-27T20:45:38.236Z,19.67
2022-11-27T20:48:26.545Z,16.33
2022-11-27T20:51:17.203Z,15.80
2022-11-27T20:54:05.800Z,15.32
2022-11-27T20:56:55.523Z,16.35
2022-11-27T20:59:44.046Z,15.38
2022-11-27T21:02:32.591Z,17.52
2022-11-27T21:05:21.218Z,15.52
2022-11-27T21:08:09.623Z,16.83
2022-11-27T21:10:58.062Z,14.13
2022-11-27T21:13:47.695Z,14.85
2022-11-27T21:16:38.191Z,18.02
2022-11-27T21:19:28.329Z,21.08
2022-11-27T21:22:16.682Z,18.77
2022-11-27T21:25:05.468Z,18.00
2022-11-27T21:27:55.845Z,18.95
2022-11-27T21:30:45.511Z,13.95
2022-11-27T21:33:34.314Z,17.70
2022-11-27T21:36:24.590Z,16.85
2022-11-27T21:39:14.397Z,17.23
2022-11-27T21:42:02.756Z,19.90
2022-11-27T21:44:51.053Z,19.98
2022-11-27T21:47:40.981Z,19.83
2022-11-27T21:50:29.457Z,15.02
2022-11-27T21:53:19.080Z,18.88
2022-11-27T21:56:09.120Z,18.40
2022-11-27T21:58:57.526Z,18.33
2022-11-27T22:01:46.381Z,16.38
2022-11-27T22:04:36.102Z,16.77
2022-11-27T22:07:24.624Z,20.50
2022-11-27T22:10:13.600Z,19.38
2022-11-27T22:13:02.129Z,17.45
2022-11-27T22:15:50.770Z,18.60
2022-11-27T22:18:39.234Z,16.17
2022-11-27T22:21:30.454Z,17.75
2022-11-27T22:27:08.589Z,16.35
2022-11-27T22:29:56.900Z,17.13
2022-11-27T22:32:45.306Z,19.00
2022-11-27T22:35:33.686Z,17.10
2022-11-27T22:38:23.382Z,18.52
2022-11-27T22:41:12.407Z,19.38
2022-11-27T22:44:02.499Z,18.15
2022-11-27T22:46:51.008Z,17.92
2022-11-27T22:49:39.474Z,20.52
2022-11-27T22:52:29.272Z,15.95
2022-11-27T22:55:19.075Z,19.75
2022-11-27T22:58:07.393Z,16.85
2022-11-27T23:00:57.084Z,17.95
2022-11-27T23:03:45.741Z,19.67
2022-11-27T23:06:34.127Z,19.75
2022-11-27T23:09:22.544Z,19.85
2022-11-27T23:12:12.263Z,19.02
2022-11-27T23:15:00.579Z,17.80
2022-11-27T23:17:49.013Z,19.23
2022-11-27T23:20:41.486Z,16.98
2022-11-27T23:23:29.831Z,20.63
2022-11-27T23:26:20.789Z,18.60
2022-11-27T23:29:10.713Z,15.20
2022-11-27T23:31:59.098Z,18.88
2022-11-27T23:34:47.792Z,18.25
2022-11-27T23:37:36.107Z,20.35
2022-11-27T23:40:24.811Z,18.52
2022-11-27T23:43:13.105Z,19.02
2022-11-27T23:46:03.722Z,17.23
2022-11-27T23:48:52.144Z,17.20
2022-11-27T23:51:40.509Z,15.50
2022-11-27T23:54:28.912Z,18.23
2022-11-27T23:57:17.265Z,21.15
